sensor_id;sensor_type;location;lat;lon;timestamp;temperature;humidity
7384;DHT22;3733;47.994;8.820;2022-09-09T00:01:43;12.30;99.90
7384;DHT22;3733;47.994;8.820;2022-09-09T00:06:44;12.20;99.90
7384;DHT22;3733;47.994;8.820;2022-09-09T00:09:15;12.20;99.90
7384;DHT22;3733;47.994;8.820;2022-09-09T00:14:29;12.10;99.90
7384;DHT22;3733;47.994;8.820;2022-09-09T00:17:02;12.10;99.90
7384;DHT22;3733;47.994;8.820;2022-09-09T00:19:50;12.10;99.90
7384;DHT22;3733;47.994;8.820;2022-09-09T00:22:18;12.00;99.90
7384;DHT22;3733;47.994;8.820;2022-09-09T00:24:55;12.00;99.90
7384;DHT22;3733;47.994;8.820;2022-09-09T00:27:45;12.00;99.90
7384;DHT22;3733;47.994;8.820;2022-09-09T00:30:25;12.00;99.90
7384;DHT22;3733;47.994;8.820;2022-09-09T00:32:58;12.00;99.90
7384;DHT22;3733;47.994;8.820;2022-09-09T00:35:29;12.00;99.90
7384;DHT22;3733;47.994;8.820;2022-09-09T00:38:00;11.90;99.90
7384;DHT22;3733;47.994;8.820;2022-09-09T00:40:34;11.90;99.90
7384;DHT22;3733;47.994;8.820;2022-09-09T00:48:51;11.80;99.90
7384;DHT22;3733;47.994;8.820;2022-09-09T00:54:20;11.80;99.90
7384;DHT22;3733;47.994;8.820;2022-09-09T00:59:46;11.70;99.90
7384;DHT22;3733;47.994;8.820;2022-09-09T01:05:34;11.70;99.90
7384;DHT22;3733;47.994;8.820;2022-09-09T01:08:03;11.60;99.90
7384;DHT22;3733;47.994;8.820;2022-09-09T01:10:42;11.60;99.90
7384;DHT22;3733;47.994;8.820;2022-09-09T01:13:33;11.60;99.90
7384;DHT22;3733;47.994;8.820;2022-09-09T01:16:01;11.60;99.90
7384;DHT22;3733;47.994;8.820;2022-09-09T01:18:38;11.60;99.90
7384;DHT22;3733;47.994;8.820;2022-09-09T01:29:12;11.60;99.90
7384;DHT22;3733;47.994;8.820;2022-09-09T01:34:14;11.50;99.90
7384;DHT22;3733;47.994;8.820;2022-09-09T01:36:54;11.50;99.90
7384;DHT22;3733;47.994;8.820;2022-09-09T01:39:20;11.60;99.90
7384;DHT22;3733;47.994;8.820;2022-09-09T01:41:46;11.50;99.90
7384;DHT22;3733;47.994;8.820;2022-09-09T01:44:12;11.50;99.90
7384;DHT22;3733;47.994;8.820;2022-09-09T01:46:39;11.50;99.90
7384;DHT22;3733;47.994;8.820;2022-09-09T01:49:06;11.60;99.90
7384;DHT22;3733;47.994;8.820;2022-09-09T01:51:34;11.60;99.90
7384;DHT22;3733;47.994;8.820;2022-09-09T01:54:00;11.60;99.90
7384;DHT22;3733;47.994;8.820;2022-09-09T02:02:19;11.70;99.90
7384;DHT22;3733;47.994;8.820;2022-09-09T02:04:52;11.60;99.90
7384;DHT22;3733;47.994;8.820;2022-09-09T02:07:42;11.70;99.90
7384;DHT22;3733;47.994;8.820;2022-09-09T02:12:40;11.70;99.90
7384;DHT22;3733;47.994;8.820;2022-09-09T02:15:40;11.80;99.90
7384;DHT22;3733;47.994;8.820;2022-09-09T02:18:09;11.80;99.90
7384;DHT22;3733;47.994;8.820;2022-09-09T02:20:37;11.80;99.90
7384;DHT22;3733;47.994;8.820;2022-09-09T02:23:04;11.80;99.90
7384;DHT22;3733;47.994;8.820;2022-09-09T02:25:30;11.80;99.90
7384;DHT22;3733;47.994;8.820;2022-09-09T02:27:58;11.80;99.90
7384;DHT22;3733;47.994;8.820;2022-09-09T02:30:24;11.80;99.90
7384;DHT22;3733;47.994;8.820;2022-09-09T02:32:52;11.80;99.90
7384;DHT22;3733;47.994;8.820;2022-09-09T02:35:23;11.80;99.90
7384;DHT22;3733;47.994;8.820;2022-09-09T02:37:51;11.80;99.90
7384;DHT22;3733;47.994;8.820;2022-09-09T02:40:18;11.90;99.90
7384;DHT22;3733;47.994;8.820;2022-09-09T02:42:46;11.90;99.90
7384;DHT22;3733;47.994;8.820;2022-09-09T02:45:25;11.90;99.90
7384;DHT22;3733;47.994;8.820;2022-09-09T02:50:32;12.00;99.90
7384;DHT22;3733;47.994;8.820;2022-09-09T02:53:18;11.90;99.90
7384;DHT22;3733;47.994;8.820;2022-09-09T02:58:14;11.90;99.90
7384;DHT22;3733;47.994;8.820;2022-09-09T03:00:44;11.90;99.90
7384;DHT22;3733;47.994;8.820;2022-09-09T03:03:11;11.80;99.90
7384;DHT22;3733;47.994;8.820;2022-09-09T03:05:37;11.80;99.90
7384;DHT22;3733;47.994;8.820;2022-09-09T03:08:03;11.80;99.90
7384;DHT22;3733;47.994;8.820;2022-09-09T03:10:29;11.90;99.90
7384;DHT22;3733;47.994;8.820;2022-09-09T03:12:54;11.90;99.90
7384;DHT22;3733;47.994;8.820;2022-09-09T03:15:21;11.90;99.90
7384;DHT22;3733;47.994;8.820;2022-09-09T03:17:46;11.90;99.90
7384;DHT22;3733;47.994;8.820;2022-09-09T03:20:12;11.90;99.90
7384;DHT22;3733;47.994;8.820;2022-09-09T03:22:38;11.90;99.90
7384;DHT22;3733;47.994;8.820;2022-09-09T03:25:04;11.90;99.90
7384;DHT22;3733;47.994;8.820;2022-09-09T03:27:31;11.90;99.90
7384;DHT22;3733;47.994;8.820;2022-09-09T03:29:57;11.90;99.90
7384;DHT22;3733;47.994;8.820;2022-09-09T03:32:22;11.90;99.90
7384;DHT22;3733;47.994;8.820;2022-09-09T03:34:51;11.90;99.90
7384;DHT22;3733;47.994;8.820;2022-09-09T03:37:18;11.90;99.90
7384;DHT22;3733;47.994;8.820;2022-09-09T03:39:44;11.80;99.90
7384;DHT22;3733;47.994;8.820;2022-09-09T03:42:13;11.80;99.90
7384;DHT22;3733;47.994;8.820;2022-09-09T03:44:46;11.80;99.90
7384;DHT22;3733;47.994;8.820;2022-09-09T03:47:16;11.90;99.90
7384;DHT22;3733;47.994;8.820;2022-09-09T03:49:41;11.90;99.90
7384;DHT22;3733;47.994;8.820;2022-09-09T03:52:08;11.90;99.90
7384;DHT22;3733;47.994;8.820;2022-09-09T03:54:34;11.90;99.90
7384;DHT22;3733;47.994;8.820;2022-09-09T03:57:00;11.90;99.90
7384;DHT22;3733;47.994;8.820;2022-09-09T03:59:25;12.00;99.90
7384;DHT22;3733;47.994;8.820;2022-09-09T04:01:51;12.00;99.90
7384;DHT22;3733;47.994;8.820;2022-09-09T04:04:17;12.00;99.90
7384;DHT22;3733;47.994;8.820;2022-09-09T04:06:43;12.00;99.90
7384;DHT22;3733;47.994;8.820;2022-09-09T04:09:08;12.00;99.90
7384;DHT22;3733;47.994;8.820;2022-09-09T04:11:34;12.00;99.90
7384;DHT22;3733;47.994;8.820;2022-09-09T04:14:00;12.00;99.90
7384;DHT22;3733;47.994;8.820;2022-09-09T04:16:25;12.00;99.90
7384;DHT22;3733;47.994;8.820;2022-09-09T04:18:51;12.00;99.90
7384;DHT22;3733;47.994;8.820;2022-09-09T04:21:18;12.00;99.90
7384;DHT22;3733;47.994;8.820;2022-09-09T04:23:44;12.00;99.90
7384;DHT22;3733;47.994;8.820;2022-09-09T04:26:09;11.90;99.90
7384;DHT22;3733;47.994;8.820;2022-09-09T04:28:36;11.90;99.90
7384;DHT22;3733;47.994;8.820;2022-09-09T04:31:11;11.90;99.90
7384;DHT22;3733;47.994;8.820;2022-09-09T04:33:39;11.90;99.90
7384;DHT22;3733;47.994;8.820;2022-09-09T04:36:05;11.90;99.90
7384;DHT22;3733;47.994;8.820;2022-09-09T04:38:31;11.90;99.90
7384;DHT22;3733;47.994;8.820;2022-09-09T04:40:57;11.90;99.90
7384;DHT22;3733;47.994;8.820;2022-09-09T04:43:22;11.90;99.90
7384;DHT22;3733;47.994;8.820;2022-09-09T04:45:51;12.00;99.90
7384;DHT22;3733;47.994;8.820;2022-09-09T04:48:18;11.90;99.90
7384;DHT22;3733;47.994;8.820;2022-09-09T04:50:44;11.90;99.90
7384;DHT22;3733;47.994;8.820;2022-09-09T04:53:09;11.90;99.90
7384;DHT22;3733;47.994;8.820;2022-09-09T04:55:35;11.80;99.90
7384;DHT22;3733;47.994;8.820;2022-09-09T04:58:08;11.80;99.90
7384;DHT22;3733;47.994;8.820;2022-09-09T05:00:35;11.90;99.90
7384;DHT22;3733;47.994;8.820;2022-09-09T05:03:05;11.90;99.90
7384;DHT22;3733;47.994;8.820;2022-09-09T05:05:32;11.90;99.90
7384;DHT22;3733;47.994;8.820;2022-09-09T05:08:07;11.90;99.90
7384;DHT22;3733;47.994;8.820;2022-09-09T05:10:34;12.00;99.90
7384;DHT22;3733;47.994;8.820;2022-09-09T05:13:01;11.90;99.90
7384;DHT22;3733;47.994;8.820;2022-09-09T05:15:27;12.00;99.90
7384;DHT22;3733;47.994;8.820;2022-09-09T05:18:00;12.00;99.90
7384;DHT22;3733;47.994;8.820;2022-09-09T05:20:26;12.00;99.90
7384;DHT22;3733;47.994;8.820;2022-09-09T05:22:53;12.00;99.90
7384;DHT22;3733;47.994;8.820;2022-09-09T05:25:20;12.10;99.90
7384;DHT22;3733;47.994;8.820;2022-09-09T05:27:46;12.10;99.90
7384;DHT22;3733;47.994;8.820;2022-09-09T05:30:12;12.10;99.90
7384;DHT22;3733;47.994;8.820;2022-09-09T05:32:38;12.20;99.90
7384;DHT22;3733;47.994;8.820;2022-09-09T05:35:03;12.20;99.90
7384;DHT22;3733;47.994;8.820;2022-09-09T05:37:30;12.20;99.90
7384;DHT22;3733;47.994;8.820;2022-09-09T05:39:56;12.30;99.90
7384;DHT22;3733;47.994;8.820;2022-09-09T05:42:23;12.20;99.90
7384;DHT22;3733;47.994;8.820;2022-09-09T05:44:48;12.20;99.90
7384;DHT22;3733;47.994;8.820;2022-09-09T05:47:16;12.20;99.90
7384;DHT22;3733;47.994;8.820;2022-09-09T05:49:42;12.20;99.90
7384;DHT22;3733;47.994;8.820;2022-09-09T05:52:08;12.20;99.90
7384;DHT22;3733;47.994;8.820;2022-09-09T05:54:35;12.20;99.90
7384;DHT22;3733;47.994;8.820;2022-09-09T05:57:00;12.20;99.90
7384;DHT22;3733;47.994;8.820;2022-09-09T05:59:26;12.30;99.90
7384;DHT22;3733;47.994;8.820;2022-09-09T06:01:52;12.30;99.90
7384;DHT22;3733;47.994;8.820;2022-09-09T06:04:18;12.40;99.90
7384;DHT22;3733;47.994;8.820;2022-09-09T06:06:46;12.40;99.90
7384;DHT22;3733;47.994;8.820;2022-09-09T06:09:11;12.50;99.90
7384;DHT22;3733;47.994;8.820;2022-09-09T06:11:38;12.50;99.90
7384;DHT22;3733;47.994;8.820;2022-09-09T06:14:05;12.60;99.90
7384;DHT22;3733;47.994;8.820;2022-09-09T06:16:32;12.70;99.90
7384;DHT22;3733;47.994;8.820;2022-09-09T06:18:59;12.90;99.90
7384;DHT22;3733;47.994;8.820;2022-09-09T06:23:52;13.20;99.90
7384;DHT22;3733;47.994;8.820;2022-09-09T06:26:38;13.30;99.90
7384;DHT22;3733;47.994;8.820;2022-09-09T06:29:07;13.40;99.90
7384;DHT22;3733;47.994;8.820;2022-09-09T06:31:34;13.40;99.90
7384;DHT22;3733;47.994;8.820;2022-09-09T06:34:01;13.50;99.90
7384;DHT22;3733;47.994;8.820;2022-09-09T06:36:29;13.50;99.90
7384;DHT22;3733;47.994;8.820;2022-09-09T06:38:55;13.60;99.90
7384;DHT22;3733;47.994;8.820;2022-09-09T06:41:22;13.60;99.90
7384;DHT22;3733;47.994;8.820;2022-09-09T06:43:48;13.70;99.90
7384;DHT22;3733;47.994;8.820;2022-09-09T06:48:44;13.80;99.90
7384;DHT22;3733;47.994;8.820;2022-09-09T06:51:11;13.80;99.90
7384;DHT22;3733;47.994;8.820;2022-09-09T06:53:38;13.90;99.90
7384;DHT22;3733;47.994;8.820;2022-09-09T06:58:37;13.90;99.90
7384;DHT22;3733;47.994;8.820;2022-09-09T07:01:08;13.90;99.90
7384;DHT22;3733;47.994;8.820;2022-09-09T07:03:35;14.00;99.90
7384;DHT22;3733;47.994;8.820;2022-09-09T07:06:01;14.10;99.90
7384;DHT22;3733;47.994;8.820;2022-09-09T07:08:27;14.20;99.90
7384;DHT22;3733;47.994;8.820;2022-09-09T07:10:54;14.30;99.90
7384;DHT22;3733;47.994;8.820;2022-09-09T07:13:26;14.40;99.90
7384;DHT22;3733;47.994;8.820;2022-09-09T07:15:52;14.50;99.90
7384;DHT22;3733;47.994;8.820;2022-09-09T07:18:19;14.50;99.90
7384;DHT22;3733;47.994;8.820;2022-09-09T07:20:54;14.60;99.90
7384;DHT22;3733;47.994;8.820;2022-09-09T07:23:20;14.60;99.90
7384;DHT22;3733;47.994;8.820;2022-09-09T07:25:46;14.60;99.90
7384;DHT22;3733;47.994;8.820;2022-09-09T07:28:13;14.70;99.90
7384;DHT22;3733;47.994;8.820;2022-09-09T07:30:39;14.70;99.90
7384;DHT22;3733;47.994;8.820;2022-09-09T07:33:06;14.80;99.90
7384;DHT22;3733;47.994;8.820;2022-09-09T07:35:31;14.90;99.90
7384;DHT22;3733;47.994;8.820;2022-09-09T07:37:57;15.00;99.90
7384;DHT22;3733;47.994;8.820;2022-09-09T07:40:24;15.30;99.90
7384;DHT22;3733;47.994;8.820;2022-09-09T07:42:50;15.50;99.90
7384;DHT22;3733;47.994;8.820;2022-09-09T07:45:15;15.70;99.90
7384;DHT22;3733;47.994;8.820;2022-09-09T07:47:41;15.80;99.90
7384;DHT22;3733;47.994;8.820;2022-09-09T07:50:09;15.90;99.90
7384;DHT22;3733;47.994;8.820;2022-09-09T07:52:35;16.00;99.90
7384;DHT22;3733;47.994;8.820;2022-09-09T07:55:02;16.10;99.90
7384;DHT22;3733;47.994;8.820;2022-09-09T07:57:31;16.00;99.90
7384;DHT22;3733;47.994;8.820;2022-09-09T07:59:57;15.90;99.90
7384;DHT22;3733;47.994;8.820;2022-09-09T08:02:25;15.80;99.90
7384;DHT22;3733;47.994;8.820;2022-09-09T08:04:53;15.70;99.90
7384;DHT22;3733;47.994;8.820;2022-09-09T08:07:19;15.70;99.90
7384;DHT22;3733;47.994;8.820;2022-09-09T08:09:46;15.70;99.90
7384;DHT22;3733;47.994;8.820;2022-09-09T08:12:12;15.70;99.90
7384;DHT22;3733;47.994;8.820;2022-09-09T08:14:38;15.70;99.90
7384;DHT22;3733;47.994;8.820;2022-09-09T08:17:05;15.70;99.90
7384;DHT22;3733;47.994;8.820;2022-09-09T08:19:31;15.80;99.90
7384;DHT22;3733;47.994;8.820;2022-09-09T08:21:59;15.90;99.90
7384;DHT22;3733;47.994;8.820;2022-09-09T08:24:27;16.10;99.90
7384;DHT22;3733;47.994;8.820;2022-09-09T08:26:52;16.10;99.90
7384;DHT22;3733;47.994;8.820;2022-09-09T08:29:19;16.20;99.90
7384;DHT22;3733;47.994;8.820;2022-09-09T08:31:46;16.20;99.90
7384;DHT22;3733;47.994;8.820;2022-09-09T08:34:12;16.30;99.90
7384;DHT22;3733;47.994;8.820;2022-09-09T08:36:40;16.40;99.90
7384;DHT22;3733;47.994;8.820;2022-09-09T08:39:09;16.50;99.90
7384;DHT22;3733;47.994;8.820;2022-09-09T08:52:30;16.60;99.90
7384;DHT22;3733;47.994;8.820;2022-09-09T08:55:05;16.60;99.90
7384;DHT22;3733;47.994;8.820;2022-09-09T08:57:35;16.70;99.90
7384;DHT22;3733;47.994;8.820;2022-09-09T09:00:02;16.80;99.90
7384;DHT22;3733;47.994;8.820;2022-09-09T09:11:04;17.00;99.90
7384;DHT22;3733;47.994;8.820;2022-09-09T09:14:01;17.10;99.90
7384;DHT22;3733;47.994;8.820;2022-09-09T09:16:39;17.30;99.90
7384;DHT22;3733;47.994;8.820;2022-09-09T09:19:08;17.40;99.90
7384;DHT22;3733;47.994;8.820;2022-09-09T09:21:45;17.50;99.90
7384;DHT22;3733;47.994;8.820;2022-09-09T09:24:45;17.50;99.90
7384;DHT22;3733;47.994;8.820;2022-09-09T09:27:34;17.30;98.80
7384;DHT22;3733;47.994;8.820;2022-09-09T09:30:20;17.20;96.20
7384;DHT22;3733;47.994;8.820;2022-09-09T09:32:54;17.10;99.60
7384;DHT22;3733;47.994;8.820;2022-09-09T09:35:20;17.30;99.90
7384;DHT22;3733;47.994;8.820;2022-09-09T09:37:47;17.50;99.70
7384;DHT22;3733;47.994;8.820;2022-09-09T09:40:16;17.70;98.40
7384;DHT22;3733;47.994;8.820;2022-09-09T09:43:00;17.70;96.70
7384;DHT22;3733;47.994;8.820;2022-09-09T09:45:42;17.80;95.80
7384;DHT22;3733;47.994;8.820;2022-09-09T09:48:11;17.80;91.10
7384;DHT22;3733;47.994;8.820;2022-09-09T09:53:30;17.60;91.20
7384;DHT22;3733;47.994;8.820;2022-09-09T09:58:30;17.50;82.80
7384;DHT22;3733;47.994;8.820;2022-09-09T10:00:58;17.40;82.30
7384;DHT22;3733;47.994;8.820;2022-09-09T10:03:26;17.40;83.30
7384;DHT22;3733;47.994;8.820;2022-09-09T10:05:53;17.30;86.20
7384;DHT22;3733;47.994;8.820;2022-09-09T10:08:19;17.40;90.90
7384;DHT22;3733;47.994;8.820;2022-09-09T10:15:56;17.50;84.90
7384;DHT22;3733;47.994;8.820;2022-09-09T10:30:04;17.10;85.10
7384;DHT22;3733;47.994;8.820;2022-09-09T10:36:12;17.00;89.50
7384;DHT22;3733;47.994;8.820;2022-09-09T10:39:06;17.10;88.30
7384;DHT22;3733;47.994;8.820;2022-09-09T10:53:08;17.50;68.60
7384;DHT22;3733;47.994;8.820;2022-09-09T10:55:41;17.70;66.70
7384;DHT22;3733;47.994;8.820;2022-09-09T10:58:18;18.10;62.80
7384;DHT22;3733;47.994;8.820;2022-09-09T11:00:53;18.30;61.80
7384;DHT22;3733;47.994;8.820;2022-09-09T11:03:24;18.70;60.70
7384;DHT22;3733;47.994;8.820;2022-09-09T11:08:29;19.10;60.10
7384;DHT22;3733;47.994;8.820;2022-09-09T11:11:06;19.20;58.50
7384;DHT22;3733;47.994;8.820;2022-09-09T11:13:53;19.30;58.40
7384;DHT22;3733;47.994;8.820;2022-09-09T11:16:45;19.30;57.90
7384;DHT22;3733;47.994;8.820;2022-09-09T11:19:26;19.50;56.40
7384;DHT22;3733;47.994;8.820;2022-09-09T11:21:54;19.60;55.10
7384;DHT22;3733;47.994;8.820;2022-09-09T11:24:37;19.80;53.60
7384;DHT22;3733;47.994;8.820;2022-09-09T11:27:16;19.90;53.40
7384;DHT22;3733;47.994;8.820;2022-09-09T11:30:11;20.00;53.40
7384;DHT22;3733;47.994;8.820;2022-09-09T11:40:22;20.90;52.50
7384;DHT22;3733;47.994;8.820;2022-09-09T11:42:48;21.20;53.90
7384;DHT22;3733;47.994;8.820;2022-09-09T11:45:24;21.00;49.60
7384;DHT22;3733;47.994;8.820;2022-09-09T11:48:00;20.90;48.50
7384;DHT22;3733;47.994;8.820;2022-09-09T11:53:23;20.50;49.30
7384;DHT22;3733;47.994;8.820;2022-09-09T11:56:10;20.50;50.20
7384;DHT22;3733;47.994;8.820;2022-09-09T11:58:41;20.80;50.80
7384;DHT22;3733;47.994;8.820;2022-09-09T12:01:34;21.20;50.60
7384;DHT22;3733;47.994;8.820;2022-09-09T12:11:45;22.20;45.30
7384;DHT22;3733;47.994;8.820;2022-09-09T12:14:22;22.30;45.60
7384;DHT22;3733;47.994;8.820;2022-09-09T12:16:48;22.30;46.40
7384;DHT22;3733;47.994;8.820;2022-09-09T12:19:16;22.50;43.80
7384;DHT22;3733;47.994;8.820;2022-09-09T12:21:58;22.60;44.50
7384;DHT22;3733;47.994;8.820;2022-09-09T12:24:43;22.60;43.60
7384;DHT22;3733;47.994;8.820;2022-09-09T12:27:19;22.40;43.10
7384;DHT22;3733;47.994;8.820;2022-09-09T12:32:24;22.00;44.10
7384;DHT22;3733;47.994;8.820;2022-09-09T12:35:07;21.60;44.90
7384;DHT22;3733;47.994;8.820;2022-09-09T12:37:37;21.30;46.10
7384;DHT22;3733;47.994;8.820;2022-09-09T12:42:44;21.10;48.20
7384;DHT22;3733;47.994;8.820;2022-09-09T12:45:18;21.50;49.40
7384;DHT22;3733;47.994;8.820;2022-09-09T12:50:25;22.30;48.30
7384;DHT22;3733;47.994;8.820;2022-09-09T12:53:04;22.60;48.30
7384;DHT22;3733;47.994;8.820;2022-09-09T12:55:36;22.90;48.40
7384;DHT22;3733;47.994;8.820;2022-09-09T12:58:04;23.20;47.90
7384;DHT22;3733;47.994;8.820;2022-09-09T13:00:32;23.40;44.30
7384;DHT22;3733;47.994;8.820;2022-09-09T13:03:16;23.40;43.50
7384;DHT22;3733;47.994;8.820;2022-09-09T13:05:42;23.50;42.60
7384;DHT22;3733;47.994;8.820;2022-09-09T13:08:12;23.60;42.80
7384;DHT22;3733;47.994;8.820;2022-09-09T13:10:53;23.70;42.80
7384;DHT22;3733;47.994;8.820;2022-09-09T13:13:27;23.80;44.10
7384;DHT22;3733;47.994;8.820;2022-09-09T13:15:58;23.90;43.70
7384;DHT22;3733;47.994;8.820;2022-09-09T13:18:30;23.90;43.90
7384;DHT22;3733;47.994;8.820;2022-09-09T13:20:57;23.90;44.30
7384;DHT22;3733;47.994;8.820;2022-09-09T13:23:30;24.00;44.00
7384;DHT22;3733;47.994;8.820;2022-09-09T13:25:58;24.10;44.30
7384;DHT22;3733;47.994;8.820;2022-09-09T13:28:27;24.10;43.40
7384;DHT22;3733;47.994;8.820;2022-09-09T13:33:30;24.30;44.10
7384;DHT22;3733;47.994;8.820;2022-09-09T13:38:32;24.10;44.10
7384;DHT22;3733;47.994;8.820;2022-09-09T13:41:03;23.90;45.70
7384;DHT22;3733;47.994;8.820;2022-09-09T13:43:44;24.10;44.80
7384;DHT22;3733;47.994;8.820;2022-09-09T13:48:58;24.20;46.50
7384;DHT22;3733;47.994;8.820;2022-09-09T13:53:59;24.10;45.10
7384;DHT22;3733;47.994;8.820;2022-09-09T13:56:26;24.30;45.00
7384;DHT22;3733;47.994;8.820;2022-09-09T13:58:51;24.30;44.10
7384;DHT22;3733;47.994;8.820;2022-09-09T14:01:17;24.30;45.00
7384;DHT22;3733;47.994;8.820;2022-09-09T14:03:42;24.50;44.30
7384;DHT22;3733;47.994;8.820;2022-09-09T14:06:10;24.80;44.80
7384;DHT22;3733;47.994;8.820;2022-09-09T14:08:36;25.20;44.90
7384;DHT22;3733;47.994;8.820;2022-09-09T14:11:03;25.50;44.00
7384;DHT22;3733;47.994;8.820;2022-09-09T14:13:29;25.70;42.90
7384;DHT22;3733;47.994;8.820;2022-09-09T14:15:55;25.80;41.90
7384;DHT22;3733;47.994;8.820;2022-09-09T14:18:21;25.60;40.40
7384;DHT22;3733;47.994;8.820;2022-09-09T14:20:48;25.70;40.70
7384;DHT22;3733;47.994;8.820;2022-09-09T14:23:16;25.70;39.80
7384;DHT22;3733;47.994;8.820;2022-09-09T14:25:42;25.80;40.50
7384;DHT22;3733;47.994;8.820;2022-09-09T14:28:12;25.90;40.10
7384;DHT22;3733;47.994;8.820;2022-09-09T14:30:39;25.70;40.40
7384;DHT22;3733;47.994;8.820;2022-09-09T14:33:05;25.30;39.70
7384;DHT22;3733;47.994;8.820;2022-09-09T14:35:31;24.90;41.40
7384;DHT22;3733;47.994;8.820;2022-09-09T14:37:58;24.40;41.80
7384;DHT22;3733;47.994;8.820;2022-09-09T14:40:24;24.00;42.50
7384;DHT22;3733;47.994;8.820;2022-09-09T14:42:50;23.60;44.00
7384;DHT22;3733;47.994;8.820;2022-09-09T14:45:16;23.40;44.30
7384;DHT22;3733;47.994;8.820;2022-09-09T14:47:42;23.10;44.20
7384;DHT22;3733;47.994;8.820;2022-09-09T14:50:07;22.70;45.30
7384;DHT22;3733;47.994;8.820;2022-09-09T14:52:33;22.20;46.70
7384;DHT22;3733;47.994;8.820;2022-09-09T14:54:59;21.90;47.50
7384;DHT22;3733;47.994;8.820;2022-09-09T14:57:24;21.70;47.90
7384;DHT22;3733;47.994;8.820;2022-09-09T14:59:50;21.40;47.80
7384;DHT22;3733;47.994;8.820;2022-09-09T15:02:16;21.40;48.00
7384;DHT22;3733;47.994;8.820;2022-09-09T15:04:41;22.00;46.80
7384;DHT22;3733;47.994;8.820;2022-09-09T15:07:07;22.40;45.50
7384;DHT22;3733;47.994;8.820;2022-09-09T15:09:33;22.80;44.20
7384;DHT22;3733;47.994;8.820;2022-09-09T15:11:58;22.90;44.00
7384;DHT22;3733;47.994;8.820;2022-09-09T15:14:24;22.70;44.30
7384;DHT22;3733;47.994;8.820;2022-09-09T15:16:51;22.40;44.70
7384;DHT22;3733;47.994;8.820;2022-09-09T15:19:17;22.00;45.50
7384;DHT22;3733;47.994;8.820;2022-09-09T15:21:42;21.60;45.80
7384;DHT22;3733;47.994;8.820;2022-09-09T15:24:08;21.60;46.70
7384;DHT22;3733;47.994;8.820;2022-09-09T15:26:34;21.90;47.40
7384;DHT22;3733;47.994;8.820;2022-09-09T15:29:00;22.20;47.00
7384;DHT22;3733;47.994;8.820;2022-09-09T15:31:28;22.10;45.30
7384;DHT22;3733;47.994;8.820;2022-09-09T15:34:00;21.90;46.40
7384;DHT22;3733;47.994;8.820;2022-09-09T15:36:29;21.60;47.00
7384;DHT22;3733;47.994;8.820;2022-09-09T15:38:55;21.20;46.90
7384;DHT22;3733;47.994;8.820;2022-09-09T15:41:21;21.00;47.30
7384;DHT22;3733;47.994;8.820;2022-09-09T15:43:49;20.70;48.00
7384;DHT22;3733;47.994;8.820;2022-09-09T15:46:45;20.40;47.60
7384;DHT22;3733;47.994;8.820;2022-09-09T15:49:13;20.20;48.30
7384;DHT22;3733;47.994;8.820;2022-09-09T15:51:41;20.00;49.00
7384;DHT22;3733;47.994;8.820;2022-09-09T15:54:08;19.90;48.90
7384;DHT22;3733;47.994;8.820;2022-09-09T15:56:34;19.70;49.50
7384;DHT22;3733;47.994;8.820;2022-09-09T15:59:01;19.60;49.20
7384;DHT22;3733;47.994;8.820;2022-09-09T16:01:28;19.50;50.30
7384;DHT22;3733;47.994;8.820;2022-09-09T16:03:55;19.50;49.90
7384;DHT22;3733;47.994;8.820;2022-09-09T16:06:23;19.40;49.90
7384;DHT22;3733;47.994;8.820;2022-09-09T16:08:51;19.30;49.90
7384;DHT22;3733;47.994;8.820;2022-09-09T16:11:19;19.20;50.10
7384;DHT22;3733;47.994;8.820;2022-09-09T16:13:47;19.10;50.20
7384;DHT22;3733;47.994;8.820;2022-09-09T16:16:15;19.10;50.60
7384;DHT22;3733;47.994;8.820;2022-09-09T16:18:49;19.00;50.60
7384;DHT22;3733;47.994;8.820;2022-09-09T16:21:22;18.90;51.20
7384;DHT22;3733;47.994;8.820;2022-09-09T16:23:52;18.90;51.00
7384;DHT22;3733;47.994;8.820;2022-09-09T16:26:21;18.80;51.20
7384;DHT22;3733;47.994;8.820;2022-09-09T16:28:48;18.70;51.20
7384;DHT22;3733;47.994;8.820;2022-09-09T16:31:22;18.70;52.10
7384;DHT22;3733;47.994;8.820;2022-09-09T16:33:49;18.60;51.90
7384;DHT22;3733;47.994;8.820;2022-09-09T16:36:17;18.60;52.00
7384;DHT22;3733;47.994;8.820;2022-09-09T16:38:44;18.50;52.20
7384;DHT22;3733;47.994;8.820;2022-09-09T16:41:11;18.50;52.60
7384;DHT22;3733;47.994;8.820;2022-09-09T16:43:37;18.40;53.00
7384;DHT22;3733;47.994;8.820;2022-09-09T16:46:12;18.40;53.20
7384;DHT22;3733;47.994;8.820;2022-09-09T16:48:39;18.30;53.70
7384;DHT22;3733;47.994;8.820;2022-09-09T16:51:06;18.30;54.40
7384;DHT22;3733;47.994;8.820;2022-09-09T16:53:33;18.20;54.70
7384;DHT22;3733;47.994;8.820;2022-09-09T16:56:07;18.20;54.80
7384;DHT22;3733;47.994;8.820;2022-09-09T16:58:33;18.10;55.10
7384;DHT22;3733;47.994;8.820;2022-09-09T17:01:00;18.00;55.50
7384;DHT22;3733;47.994;8.820;2022-09-09T17:03:27;18.00;56.00
7384;DHT22;3733;47.994;8.820;2022-09-09T17:05:52;17.90;56.10
7384;DHT22;3733;47.994;8.820;2022-09-09T17:08:18;17.90;56.80
7384;DHT22;3733;47.994;8.820;2022-09-09T17:10:43;17.80;58.20
7384;DHT22;3733;47.994;8.820;2022-09-09T17:13:09;17.80;58.90
7384;DHT22;3733;47.994;8.820;2022-09-09T17:15:42;17.70;59.40
7384;DHT22;3733;47.994;8.820;2022-09-09T17:18:11;17.70;59.10
7384;DHT22;3733;47.994;8.820;2022-09-09T17:20:40;17.60;59.10
7384;DHT22;3733;47.994;8.820;2022-09-09T17:23:07;17.50;59.30
7384;DHT22;3733;47.994;8.820;2022-09-09T17:25:33;17.50;59.60
7384;DHT22;3733;47.994;8.820;2022-09-09T17:28:00;17.50;59.80
7384;DHT22;3733;47.994;8.820;2022-09-09T17:30:27;17.50;61.20
7384;DHT22;3733;47.994;8.820;2022-09-09T17:32:53;17.40;60.20
7384;DHT22;3733;47.994;8.820;2022-09-09T17:35:19;17.40;60.90
7384;DHT22;3733;47.994;8.820;2022-09-09T17:37:44;17.40;61.20
7384;DHT22;3733;47.994;8.820;2022-09-09T17:40:11;17.40;61.80
7384;DHT22;3733;47.994;8.820;2022-09-09T17:42:36;17.40;62.90
7384;DHT22;3733;47.994;8.820;2022-09-09T17:45:03;17.30;65.20
7384;DHT22;3733;47.994;8.820;2022-09-09T17:47:28;17.20;66.90
7384;DHT22;3733;47.994;8.820;2022-09-09T17:49:56;17.10;67.60
7384;DHT22;3733;47.994;8.820;2022-09-09T17:52:21;17.00;67.90
7384;DHT22;3733;47.994;8.820;2022-09-09T17:54:48;16.90;68.90
7384;DHT22;3733;47.994;8.820;2022-09-09T17:57:15;16.90;68.90
7384;DHT22;3733;47.994;8.820;2022-09-09T17:59:42;16.80;69.90
7384;DHT22;3733;47.994;8.820;2022-09-09T18:02:10;16.80;71.70
7384;DHT22;3733;47.994;8.820;2022-09-09T18:04:36;16.70;75.70
7384;DHT22;3733;47.994;8.820;2022-09-09T18:07:02;16.60;80.10
7384;DHT22;3733;47.994;8.820;2022-09-09T18:09:27;16.60;84.90
7384;DHT22;3733;47.994;8.820;2022-09-09T18:11:55;16.50;89.80
7384;DHT22;3733;47.994;8.820;2022-09-09T18:14:28;16.50;91.20
7384;DHT22;3733;47.994;8.820;2022-09-09T18:16:55;16.40;92.10
7384;DHT22;3733;47.994;8.820;2022-09-09T18:19:23;16.30;91.60
7384;DHT22;3733;47.994;8.820;2022-09-09T18:21:50;16.20;93.10
7384;DHT22;3733;47.994;8.820;2022-09-09T18:24:17;16.10;93.60
7384;DHT22;3733;47.994;8.820;2022-09-09T18:26:44;16.00;94.90
7384;DHT22;3733;47.994;8.820;2022-09-09T18:29:12;15.90;95.60
7384;DHT22;3733;47.994;8.820;2022-09-09T18:31:39;15.80;95.40
7384;DHT22;3733;47.994;8.820;2022-09-09T18:34:09;15.80;95.20
7384;DHT22;3733;47.994;8.820;2022-09-09T18:36:38;15.70;95.90
7384;DHT22;3733;47.994;8.820;2022-09-09T18:39:06;15.70;96.70
7384;DHT22;3733;47.994;8.820;2022-09-09T18:41:38;15.60;96.30
7384;DHT22;3733;47.994;8.820;2022-09-09T18:44:10;15.60;98.20